sensor_id;sensor_type;location;lat;lon;timestamp;pressure;altitude;pressure_sealevel;temperature;humidity
52927;BME280;40783;49.710;8.842;2023-06-14T00:00:43;98716.84;;;17.97;53.30
52927;BME280;40783;49.710;8.842;2023-06-14T00:03:09;98719.53;;;18.04;52.80
52927;BME280;40783;49.710;8.842;2023-06-14T00:05:36;98725.59;;;17.99;52.95
52927;BME280;40783;49.710;8.842;2023-06-14T00:08:05;98720.19;;;17.92;52.47
52927;BME280;40783;49.710;8.842;2023-06-14T00:10:33;98725.88;;;17.84;53.41
52927;BME280;40783;49.710;8.842;2023-06-14T00:13:00;98729.09;;;17.61;53.41
52927;BME280;40783;49.710;8.842;2023-06-14T00:15:25;98729.66;;;17.70;53.94
52927;BME280;40783;49.710;8.842;2023-06-14T00:17:50;98722.56;;;17.75;52.82
52927;BME280;40783;49.710;8.842;2023-06-14T00:20:16;98721.13;;;17.73;52.67
52927;BME280;40783;49.710;8.842;2023-06-14T00:22:41;98726.97;;;17.70;53.42
52927;BME280;40783;49.710;8.842;2023-06-14T00:25:08;98730.28;;;17.72;52.66
52927;BME280;40783;49.710;8.842;2023-06-14T00:27:33;98719.28;;;17.67;53.15
52927;BME280;40783;49.710;8.842;2023-06-14T00:29:59;98722.84;;;17.60;52.91
52927;BME280;40783;49.710;8.842;2023-06-14T00:32:24;98719.94;;;17.55;54.13
52927;BME280;40783;49.710;8.842;2023-06-14T00:34:52;98716.81;;;17.58;53.66
52927;BME280;40783;49.710;8.842;2023-06-14T00:37:18;98716.22;;;17.56;53.50
52927;BME280;40783;49.710;8.842;2023-06-14T00:39:43;98709.56;;;17.52;53.97
52927;BME280;40783;49.710;8.842;2023-06-14T00:42:08;98712.50;;;17.50;53.40
52927;BME280;40783;49.710;8.842;2023-06-14T00:44:33;98713.78;;;17.48;53.76
52927;BME280;40783;49.710;8.842;2023-06-14T00:46:58;98720.84;;;17.42;54.13
52927;BME280;40783;49.710;8.842;2023-06-14T00:49:24;98717.09;;;17.43;53.93
52927;BME280;40783;49.710;8.842;2023-06-14T00:51:51;98722.53;;;17.37;54.03
52927;BME280;40783;49.710;8.842;2023-06-14T00:54:19;98724.19;;;17.38;54.32
52927;BME280;40783;49.710;8.842;2023-06-14T00:56:44;98719.41;;;17.40;54.85
52927;BME280;40783;49.710;8.842;2023-06-14T00:59:12;98719.41;;;17.40;54.41
52927;BME280;40783;49.710;8.842;2023-06-14T01:01:40;98722.53;;;17.37;54.01
52927;BME280;40783;49.710;8.842;2023-06-14T01:04:05;98722.53;;;17.37;54.21
52927;BME280;40783;49.710;8.842;2023-06-14T01:09:03;98724.22;;;17.24;54.88
52927;BME280;40783;49.710;8.842;2023-06-14T01:11:32;98725.06;;;17.18;54.89
52927;BME280;40783;49.710;8.842;2023-06-14T01:13:58;98719.66;;;17.18;54.61
52927;BME280;40783;49.710;8.842;2023-06-14T01:16:24;98728.41;;;17.06;55.06
52927;BME280;40783;49.710;8.842;2023-06-14T01:18:51;98719.69;;;17.04;54.62
52927;BME280;40783;49.710;8.842;2023-06-14T01:21:23;98720.75;;;16.90;54.88
52927;BME280;40783;49.710;8.842;2023-06-14T01:23:51;98728.03;;;16.69;55.19
52927;BME280;40783;49.710;8.842;2023-06-14T01:26:21;98729.69;;;16.70;55.21
52927;BME280;40783;49.710;8.842;2023-06-14T01:28:46;98738.22;;;16.60;55.56
52927;BME280;40783;49.710;8.842;2023-06-14T01:31:19;98732.59;;;16.62;55.18
52927;BME280;40783;49.710;8.842;2023-06-14T01:33:46;98735.91;;;16.71;54.82
52927;BME280;40783;49.710;8.842;2023-06-14T01:36:12;98732.19;;;16.79;54.62
52927;BME280;40783;49.710;8.842;2023-06-14T01:38:38;98728.44;;;16.80;54.31
52927;BME280;40783;49.710;8.842;2023-06-14T01:41:04;98735.50;;;16.74;54.83
52927;BME280;40783;49.710;8.842;2023-06-14T01:43:30;98726.78;;;16.72;55.14
52927;BME280;40783;49.710;8.842;2023-06-14T01:45:56;98733.84;;;16.73;54.84
52927;BME280;40783;49.710;8.842;2023-06-14T01:48:25;98728.88;;;16.76;54.71
52927;BME280;40783;49.710;8.842;2023-06-14T01:50:51;98735.09;;;16.70;55.40
52927;BME280;40783;49.710;8.842;2023-06-14T01:53:19;98732.16;;;16.72;55.88
52927;BME280;40783;49.710;8.842;2023-06-14T01:55:45;98731.38;;;16.65;55.17
52927;BME280;40783;49.710;8.842;2023-06-14T01:58:15;98729.28;;;16.53;56.13
52927;BME280;40783;49.710;8.842;2023-06-14T02:00:46;98730.50;;;16.51;55.83
52927;BME280;40783;49.710;8.842;2023-06-14T02:03:12;98730.50;;;16.51;55.86
52927;BME280;40783;49.710;8.842;2023-06-14T02:05:38;98734.66;;;16.46;56.39
52927;BME280;40783;49.710;8.842;2023-06-14T02:08:04;98739.66;;;16.50;56.72
52927;BME280;40783;49.710;8.842;2023-06-14T02:10:30;98729.28;;;16.46;56.41
52927;BME280;40783;49.710;8.842;2023-06-14T02:12:55;98733.00;;;16.45;56.01
52927;BME280;40783;49.710;8.842;2023-06-14T02:15:20;98734.25;;;16.50;56.10
52927;BME280;40783;49.710;8.842;2023-06-14T02:17:46;98738.22;;;16.40;56.25
52927;BME280;40783;49.710;8.842;2023-06-14T02:20:14;98741.72;;;16.41;56.15
52927;BME280;40783;49.710;8.842;2023-06-14T02:22:40;98741.53;;;16.42;56.00
52927;BME280;40783;49.710;8.842;2023-06-14T02:25:05;98737.56;;;16.25;56.11
52927;BME280;40783;49.710;8.842;2023-06-14T02:27:31;98732.19;;;16.25;56.07
52927;BME280;40783;49.710;8.842;2023-06-14T02:30:01;98740.03;;;16.26;56.02
52927;BME280;40783;49.710;8.842;2023-06-14T02:32:28;98735.91;;;16.24;56.37
52927;BME280;40783;49.710;8.842;2023-06-14T02:34:54;98737.13;;;16.21;55.87
52927;BME280;40783;49.710;8.842;2023-06-14T02:37:19;98736.72;;;16.17;55.86
52927;BME280;40783;49.710;8.842;2023-06-14T02:39:47;98738.16;;;16.13;56.28
52927;BME280;40783;49.710;8.842;2023-06-14T02:42:12;98735.88;;;16.10;56.22
52927;BME280;40783;49.710;8.842;2023-06-14T02:44:37;98730.06;;;16.13;56.56
52927;BME280;40783;49.710;8.842;2023-06-14T02:47:05;98725.53;;;16.14;56.54
52927;BME280;40783;49.710;8.842;2023-06-14T02:49:30;98730.47;;;16.10;56.98
52927;BME280;40783;49.710;8.842;2023-06-14T02:51:55;98729.63;;;15.96;56.27
52927;BME280;40783;49.710;8.842;2023-06-14T02:54:21;98732.50;;;15.95;57.00
52927;BME280;40783;49.710;8.842;2023-06-14T02:56:46;98739.09;;;15.79;57.30
52927;BME280;40783;49.710;8.842;2023-06-14T02:59:11;98749.53;;;15.89;56.99
52927;BME280;40783;49.710;8.842;2023-06-14T03:01:38;98738.25;;;15.78;57.64
52927;BME280;40783;49.710;8.842;2023-06-14T03:04:06;98747.88;;;15.87;57.46
52927;BME280;40783;49.710;8.842;2023-06-14T03:06:33;98753.63;;;15.84;56.89
52927;BME280;40783;49.710;8.842;2023-06-14T03:08:59;98748.66;;;15.81;56.77
52927;BME280;40783;49.710;8.842;2023-06-14T03:11:25;98750.09;;;15.84;56.69
52927;BME280;40783;49.710;8.842;2023-06-14T03:13:53;98756.50;;;15.76;57.42
52927;BME280;40783;49.710;8.842;2023-06-14T03:16:18;98763.16;;;15.80;57.40
52927;BME280;40783;49.710;8.842;2023-06-14T03:18:49;98767.69;;;15.73;56.90
52927;BME280;40783;49.710;8.842;2023-06-14T03:21:14;98762.25;;;15.60;57.50
52927;BME280;40783;49.710;8.842;2023-06-14T03:23:41;98764.28;;;15.51;57.55
52927;BME280;40783;49.710;8.842;2023-06-14T03:26:06;98766.50;;;15.40;58.21
52927;BME280;40783;49.710;8.842;2023-06-14T03:28:31;98760.09;;;15.48;58.42
52927;BME280;40783;49.710;8.842;2023-06-14T03:30:56;98765.47;;;15.41;57.58
52927;BME280;40783;49.710;8.842;2023-06-14T03:33:22;98765.88;;;15.45;57.37
52927;BME280;40783;49.710;8.842;2023-06-14T03:35:49;98767.94;;;15.43;57.36
52927;BME280;40783;49.710;8.842;2023-06-14T03:38:15;98766.28;;;15.42;57.99
52927;BME280;40783;49.710;8.842;2023-06-14T03:40:40;98772.25;;;15.31;57.93
52927;BME280;40783;49.710;8.842;2023-06-14T03:43:05;98779.84;;;15.20;58.59
52927;BME280;40783;49.710;8.842;2023-06-14T03:45:31;98779.75;;;15.07;59.29
52927;BME280;40783;49.710;8.842;2023-06-14T03:47:56;98780.34;;;15.31;58.81
52927;BME280;40783;49.710;8.842;2023-06-14T03:50:25;98784.47;;;15.26;58.33
52927;BME280;40783;49.710;8.842;2023-06-14T03:52:50;98788.22;;;15.32;58.52
52927;BME280;40783;49.710;8.842;2023-06-14T03:55:17;98791.56;;;15.41;57.94
52927;BME280;40783;49.710;8.842;2023-06-14T03:57:42;98801.13;;;15.43;57.60
52927;BME280;40783;49.710;8.842;2023-06-14T04:00:08;98795.69;;;15.37;58.16
52927;BME280;40783;49.710;8.842;2023-06-14T04:02:34;98799.34;;;15.22;58.48
52927;BME280;40783;49.710;8.842;2023-06-14T04:04:59;98793.75;;;14.95;61.56
52927;BME280;40783;49.710;8.842;2023-06-14T04:07:25;98800.03;;;14.74;62.75
52927;BME280;40783;49.710;8.842;2023-06-14T04:09:55;98806.94;;;14.83;60.21
52927;BME280;40783;49.710;8.842;2023-06-14T04:12:21;98802.91;;;14.73;60.54
52927;BME280;40783;49.710;8.842;2023-06-14T04:14:48;98801.97;;;14.87;60.31
52927;BME280;40783;49.710;8.842;2023-06-14T04:17:13;98802.47;;;14.97;60.03
52927;BME280;40783;49.710;8.842;2023-06-14T04:19:38;98799.34;;;14.94;60.16
52927;BME280;40783;49.710;8.842;2023-06-14T04:22:04;98811.69;;;15.10;59.45
52927;BME280;40783;49.710;8.842;2023-06-14T04:24:29;98814.59;;;15.08;60.00
52927;BME280;40783;49.710;8.842;2023-06-14T04:27:00;98817.06;;;15.10;59.72
52927;BME280;40783;49.710;8.842;2023-06-14T04:29:26;98824.63;;;15.21;59.39
52927;BME280;40783;49.710;8.842;2023-06-14T04:31:54;98824.81;;;15.20;59.19
52927;BME280;40783;49.710;8.842;2023-06-14T04:34:19;98833.28;;;15.17;59.33
52927;BME280;40783;49.710;8.842;2023-06-14T04:36:47;98832.59;;;15.08;61.12
52927;BME280;40783;49.710;8.842;2023-06-14T04:39:23;98832.84;;;15.13;60.47
52927;BME280;40783;49.710;8.842;2023-06-14T04:41:49;98834.50;;;15.14;60.01
52927;BME280;40783;49.710;8.842;2023-06-14T04:44:19;98841.41;;;15.23;60.20
52927;BME280;40783;49.710;8.842;2023-06-14T04:46:45;98834.63;;;15.27;60.30
52927;BME280;40783;49.710;8.842;2023-06-14T04:49:19;98840.41;;;15.24;59.99
52927;BME280;40783;49.710;8.842;2023-06-14T04:51:45;98846.81;;;15.23;61.89
52927;BME280;40783;49.710;8.842;2023-06-14T04:54:12;98844.03;;;15.17;63.98
52927;BME280;40783;49.710;8.842;2023-06-14T04:56:40;98850.72;;;15.21;61.33
52927;BME280;40783;49.710;8.842;2023-06-14T04:59:05;98851.97;;;15.25;60.88
52927;BME280;40783;49.710;8.842;2023-06-14T05:01:31;98843.25;;;15.23;63.79
52927;BME280;40783;49.710;8.842;2023-06-14T05:04:01;98853.41;;;15.21;63.67
52927;BME280;40783;49.710;8.842;2023-06-14T05:06:26;98854.88;;;15.23;63.03
52927;BME280;40783;49.710;8.842;2023-06-14T05:08:52;98858.47;;;15.31;62.62
52927;BME280;40783;49.710;8.842;2023-06-14T05:11:20;98857.63;;;15.30;65.73
52927;BME280;40783;49.710;8.842;2023-06-14T05:13:45;98854.03;;;15.23;66.06
52927;BME280;40783;49.710;8.842;2023-06-14T05:16:11;98855.78;;;15.31;64.26
52927;BME280;40783;49.710;8.842;2023-06-14T05:18:37;98855.38;;;15.34;65.99
52927;BME280;40783;49.710;8.842;2023-06-14T05:21:03;98851.69;;;15.41;63.37
52927;BME280;40783;49.710;8.842;2023-06-14T05:23:29;98854.03;;;15.23;63.59
52927;BME280;40783;49.710;8.842;2023-06-14T05:25:55;98853.75;;;15.39;65.72
52927;BME280;40783;49.710;8.842;2023-06-14T05:28:20;98860.19;;;15.45;65.62
52927;BME280;40783;49.710;8.842;2023-06-14T05:30:45;98855.41;;;15.40;65.39
52927;BME280;40783;49.710;8.842;2023-06-14T05:33:11;98860.25;;;15.52;65.14
52927;BME280;40783;49.710;8.842;2023-06-14T05:35:36;98858.38;;;15.52;65.50
52927;BME280;40783;49.710;8.842;2023-06-14T05:38:02;98862.59;;;15.62;65.07
52927;BME280;40783;49.710;8.842;2023-06-14T05:40:28;98867.28;;;15.81;63.42
52927;BME280;40783;49.710;8.842;2023-06-14T05:42:55;98873.38;;;15.97;66.24
52927;BME280;40783;49.710;8.842;2023-06-14T05:45:20;98887.78;;;16.11;63.32
52927;BME280;40783;49.710;8.842;2023-06-14T05:47:45;98882.00;;;16.21;63.66
52927;BME280;40783;49.710;8.842;2023-06-14T05:50:11;98876.19;;;16.24;63.00
52927;BME280;40783;49.710;8.842;2023-06-14T05:52:36;98877.53;;;16.55;66.80
52927;BME280;40783;49.710;8.842;2023-06-14T05:55:02;98879.63;;;16.73;64.10
52927;BME280;40783;49.710;8.842;2023-06-14T05:57:30;98875.13;;;17.00;61.82
52927;BME280;40783;49.710;8.842;2023-06-14T05:59:55;98882.22;;;17.22;60.17
52927;BME280;40783;49.710;8.842;2023-06-14T06:02:22;98880.53;;;17.27;59.44
52927;BME280;40783;49.710;8.842;2023-06-14T06:04:47;98872.81;;;17.51;59.86
52927;BME280;40783;49.710;8.842;2023-06-14T06:07:17;98876.97;;;17.60;59.43
52927;BME280;40783;49.710;8.842;2023-06-14T06:09:42;98883.00;;;17.69;59.72
52927;BME280;40783;49.710;8.842;2023-06-14T06:12:08;98882.16;;;17.69;59.12
52927;BME280;40783;49.710;8.842;2023-06-14T06:14:33;98889.19;;;17.83;58.87
52927;BME280;40783;49.710;8.842;2023-06-14T06:17:03;98879.38;;;17.95;58.74
52927;BME280;40783;49.710;8.842;2023-06-14T06:19:34;98882.44;;;18.19;58.51
52927;BME280;40783;49.710;8.842;2023-06-14T06:21:59;98882.56;;;18.38;57.16
52927;BME280;40783;49.710;8.842;2023-06-14T06:24:24;98879.59;;;18.46;56.88
52927;BME280;40783;49.710;8.842;2023-06-14T06:26:49;98888.06;;;18.57;57.21
52927;BME280;40783;49.710;8.842;2023-06-14T06:29:14;98889.03;;;18.69;55.85
52927;BME280;40783;49.710;8.842;2023-06-14T06:31:40;98889.03;;;18.76;55.63
52927;BME280;40783;49.710;8.842;2023-06-14T06:34:05;98890.38;;;18.92;56.14
52927;BME280;40783;49.710;8.842;2023-06-14T06:36:30;98896.59;;;18.99;55.32
52927;BME280;40783;49.710;8.842;2023-06-14T06:38:57;98897.22;;;19.26;54.71
52927;BME280;40783;49.710;8.842;2023-06-14T06:41:23;98897.59;;;19.30;53.83
52927;BME280;40783;49.710;8.842;2023-06-14T06:43:48;98898.97;;;19.39;53.71
52927;BME280;40783;49.710;8.842;2023-06-14T06:46:15;98902.09;;;19.62;54.91
52927;BME280;40783;49.710;8.842;2023-06-14T06:48:42;98898.28;;;19.88;52.53
52927;BME280;40783;49.710;8.842;2023-06-14T06:51:08;98902.97;;;20.18;52.36
52927;BME280;40783;49.710;8.842;2023-06-14T06:53:33;98897.84;;;20.28;50.92
52927;BME280;40783;49.710;8.842;2023-06-14T06:55:58;98895.63;;;20.07;51.57
52927;BME280;40783;49.710;8.842;2023-06-14T06:58:28;98903.31;;;20.10;50.72
52927;BME280;40783;49.710;8.842;2023-06-14T07:00:56;98908.84;;;20.34;50.93
52927;BME280;40783;49.710;8.842;2023-06-14T07:03:21;98901.75;;;20.51;51.48
52927;BME280;40783;49.710;8.842;2023-06-14T07:05:48;98907.19;;;20.51;49.50
52927;BME280;40783;49.710;8.842;2023-06-14T07:08:14;98911.28;;;20.23;49.85
52927;BME280;40783;49.710;8.842;2023-06-14T07:10:39;98901.63;;;20.27;49.87
52927;BME280;40783;49.710;8.842;2023-06-14T07:13:07;98911.13;;;20.37;49.82
52927;BME280;40783;49.710;8.842;2023-06-14T07:15:32;98906.13;;;20.34;49.33
52927;BME280;40783;49.710;8.842;2023-06-14T07:17:57;98903.72;;;20.44;49.44
52927;BME280;40783;49.710;8.842;2023-06-14T07:20:25;98906.81;;;20.78;49.15
52927;BME280;40783;49.710;8.842;2023-06-14T07:22:50;98912.34;;;20.71;48.56
52927;BME280;40783;49.710;8.842;2023-06-14T07:25:15;98912.41;;;20.95;48.63
52927;BME280;40783;49.710;8.842;2023-06-14T07:27:41;98914.72;;;21.10;49.20
52927;BME280;40783;49.710;8.842;2023-06-14T07:30:09;98910.94;;;21.11;47.70
52927;BME280;40783;49.710;8.842;2023-06-14T07:32:37;98907.47;;;20.92;47.45
52927;BME280;40783;49.710;8.842;2023-06-14T07:35:02;98916.84;;;21.08;47.99
52927;BME280;40783;49.710;8.842;2023-06-14T07:37:28;98917.31;;;21.05;47.74
52927;BME280;40783;49.710;8.842;2023-06-14T07:39:53;98909.50;;;20.97;48.02
52927;BME280;40783;49.710;8.842;2023-06-14T07:42:18;98917.13;;;21.18;47.11
52927;BME280;40783;49.710;8.842;2023-06-14T07:44:43;98915.00;;;21.44;46.49
52927;BME280;40783;49.710;8.842;2023-06-14T07:47:09;98911.66;;;21.18;46.81
52927;BME280;40783;49.710;8.842;2023-06-14T07:49:36;98919.22;;;21.16;47.06
52927;BME280;40783;49.710;8.842;2023-06-14T07:52:04;98918.78;;;20.58;46.69
52927;BME280;40783;49.710;8.842;2023-06-14T07:54:30;98912.78;;;20.68;47.60
52927;BME280;40783;49.710;8.842;2023-06-14T07:56:56;98917.19;;;21.00;47.42
52927;BME280;40783;49.710;8.842;2023-06-14T07:59:25;98913.31;;;21.19;47.95
52927;BME280;40783;49.710;8.842;2023-06-14T08:01:53;98912.69;;;21.05;47.72
52927;BME280;40783;49.710;8.842;2023-06-14T08:04:22;98918.91;;;20.94;48.25
52927;BME280;40783;49.710;8.842;2023-06-14T08:06:51;98916.75;;;20.54;48.84
52927;BME280;40783;49.710;8.842;2023-06-14T08:09:20;98908.16;;;20.69;49.86
52927;BME280;40783;49.710;8.842;2023-06-14T08:11:46;98917.16;;;20.69;49.05
52927;BME280;40783;49.710;8.842;2023-06-14T08:14:11;98913.16;;;20.72;50.02
52927;BME280;40783;49.710;8.842;2023-06-14T08:16:39;98919.25;;;20.55;47.40
52927;BME280;40783;49.710;8.842;2023-06-14T08:19:04;98921.53;;;20.40;47.58
52927;BME280;40783;49.710;8.842;2023-06-14T08:21:32;98916.88;;;20.10;47.96
52927;BME280;40783;49.710;8.842;2023-06-14T08:23:58;98923.50;;;20.14;48.29
52927;BME280;40783;49.710;8.842;2023-06-14T08:26:24;98917.16;;;20.20;47.26
52927;BME280;40783;49.710;8.842;2023-06-14T08:28:53;98907.69;;;20.11;46.83
52927;BME280;40783;49.710;8.842;2023-06-14T08:31:19;98910.66;;;20.21;48.62
52927;BME280;40783;49.710;8.842;2023-06-14T08:33:47;98915.88;;;20.23;48.36
52927;BME280;40783;49.710;8.842;2023-06-14T08:36:12;98917.47;;;20.30;48.55
52927;BME280;40783;49.710;8.842;2023-06-14T08:38:38;98912.63;;;20.51;49.76
52927;BME280;40783;49.710;8.842;2023-06-14T08:41:03;98909.13;;;20.63;48.24
52927;BME280;40783;49.710;8.842;2023-06-14T08:43:30;98904.41;;;20.70;47.75
52927;BME280;40783;49.710;8.842;2023-06-14T08:45:58;98909.22;;;20.68;47.35
52927;BME280;40783;49.710;8.842;2023-06-14T08:48:24;98914.88;;;20.54;46.86
52927;BME280;40783;49.710;8.842;2023-06-14T08:50:59;98919.25;;;20.37;47.65
52927;BME280;40783;49.710;8.842;2023-06-14T08:53:33;98909.63;;;20.22;46.19
52927;BME280;40783;49.710;8.842;2023-06-14T08:55:59;98914.44;;;20.39;47.08
52927;BME280;40783;49.710;8.842;2023-06-14T08:58:29;98921.97;;;20.55;48.34
52927;BME280;40783;49.710;8.842;2023-06-14T09:00:56;98908.28;;;20.62;46.75
52927;BME280;40783;49.710;8.842;2023-06-14T09:03:22;98923.94;;;20.48;45.71
52927;BME280;40783;49.710;8.842;2023-06-14T09:05:48;98914.63;;;20.56;46.74
52927;BME280;40783;49.710;8.842;2023-06-14T09:08:13;98915.47;;;20.56;46.73
52927;BME280;40783;49.710;8.842;2023-06-14T09:10:39;98919.56;;;20.28;47.91
52927;BME280;40783;49.710;8.842;2023-06-14T09:13:05;98920.63;;;20.27;47.76
52927;BME280;40783;49.710;8.842;2023-06-14T09:15:31;98919.41;;;20.42;46.47
52927;BME280;40783;49.710;8.842;2023-06-14T09:17:57;98940.63;;;20.33;46.67
52927;BME280;40783;49.710;8.842;2023-06-14T09:20:23;98932.84;;;20.37;47.34
52927;BME280;40783;49.710;8.842;2023-06-14T09:22:48;98928.44;;;20.54;46.44
52927;BME280;40783;49.710;8.842;2023-06-14T09:25:16;98935.25;;;20.45;46.63
52927;BME280;40783;49.710;8.842;2023-06-14T09:27:43;98936.34;;;20.56;47.38
52927;BME280;40783;49.710;8.842;2023-06-14T09:30:09;98935.09;;;20.58;46.73
52927;BME280;40783;49.710;8.842;2023-06-14T09:32:39;98933.56;;;20.63;46.38
52927;BME280;40783;49.710;8.842;2023-06-14T09:35:08;98930.81;;;20.81;46.35
52927;BME280;40783;49.710;8.842;2023-06-14T09:37:36;98936.41;;;20.86;45.56
52927;BME280;40783;49.710;8.842;2023-06-14T09:40:03;98944.56;;;20.98;46.32
52927;BME280;40783;49.710;8.842;2023-06-14T09:42:31;98946.53;;;20.79;46.25
52927;BME280;40783;49.710;8.842;2023-06-14T09:45:00;98941.84;;;20.98;46.25
52927;BME280;40783;49.710;8.842;2023-06-14T09:47:26;98946.63;;;21.03;43.12
52927;BME280;40783;49.710;8.842;2023-06-14T09:49:52;98940.34;;;21.02;44.64
52927;BME280;40783;49.710;8.842;2023-06-14T09:52:20;98944.16;;;21.13;44.92
52927;BME280;40783;49.710;8.842;2023-06-14T09:54:47;98935.81;;;21.50;43.86
52927;BME280;40783;49.710;8.842;2023-06-14T09:57:17;98933.03;;;21.69;43.16
52927;BME280;40783;49.710;8.842;2023-06-14T09:59:48;98933.97;;;21.63;43.35
52927;BME280;40783;49.710;8.842;2023-06-14T10:02:29;98944.38;;;21.90;44.61
52927;BME280;40783;49.710;8.842;2023-06-14T10:05:03;98939.75;;;21.67;42.56
52927;BME280;40783;49.710;8.842;2023-06-14T10:07:30;98929.44;;;21.81;42.67
52927;BME280;40783;49.710;8.842;2023-06-14T10:09:56;98933.03;;;21.69;42.82
52927;BME280;40783;49.710;8.842;2023-06-14T10:12:22;98940.78;;;21.54;44.02
52927;BME280;40783;49.710;8.842;2023-06-14T10:14:51;98952.78;;;21.10;45.24
52927;BME280;40783;49.710;8.842;2023-06-14T10:17:41;98949.03;;;20.81;46.00
52927;BME280;40783;49.710;8.842;2023-06-14T10:23:21;98940.38;;;21.14;46.03
52927;BME280;40783;49.710;8.842;2023-06-14T10:25:28;98944.31;;;21.42;45.92
52927;BME280;40783;49.710;8.842;2023-06-14T10:28:38;98930.38;;;21.50;45.50
52927;BME280;40783;49.710;8.842;2023-06-14T10:33:29;98949.41;;;21.39;44.13
52927;BME280;40783;49.710;8.842;2023-06-14T10:36:06;98946.19;;;21.30;45.61
52927;BME280;40783;49.710;8.842;2023-06-14T10:38:35;98943.72;;;21.28;45.40
52927;BME280;40783;49.710;8.842;2023-06-14T10:41:01;98947.50;;;21.27;44.98
52927;BME280;40783;49.710;8.842;2023-06-14T10:43:26;98941.59;;;21.42;46.32
52927;BME280;40783;49.710;8.842;2023-06-14T10:48:39;98935.53;;;21.16;44.67
52927;BME280;40783;49.710;8.842;2023-06-14T10:51:05;98949.66;;;20.95;44.04
52927;BME280;40783;49.710;8.842;2023-06-14T10:53:30;98940.63;;;20.82;44.52
52927;BME280;40783;49.710;8.842;2023-06-14T10:56:07;98944.69;;;20.73;45.40
52927;BME280;40783;49.710;8.842;2023-06-14T10:58:32;98933.63;;;20.74;44.50
52927;BME280;40783;49.710;8.842;2023-06-14T11:01:00;98933.16;;;21.08;44.80
52927;BME280;40783;49.710;8.842;2023-06-14T11:06:12;98941.47;;;21.37;43.62
52927;BME280;40783;49.710;8.842;2023-06-14T11:11:07;98934.53;;;20.99;43.08
52927;BME280;40783;49.710;8.842;2023-06-14T11:13:33;98931.97;;;21.04;44.08
52927;BME280;40783;49.710;8.842;2023-06-14T11:16:00;98928.47;;;21.39;43.39
52927;BME280;40783;49.710;8.842;2023-06-14T11:18:25;98920.00;;;21.83;42.88
52927;BME280;40783;49.710;8.842;2023-06-14T11:20:54;98929.69;;;21.91;42.67
52927;BME280;40783;49.710;8.842;2023-06-14T11:23:20;98928.53;;;21.75;42.00
52927;BME280;40783;49.710;8.842;2023-06-14T11:25:51;98934.63;;;21.58;42.82
52927;BME280;40783;49.710;8.842;2023-06-14T11:28:17;98938.00;;;21.72;43.83
52927;BME280;40783;49.710;8.842;2023-06-14T11:30:44;98940.41;;;21.50;42.66
52927;BME280;40783;49.710;8.842;2023-06-14T11:33:16;98944.19;;;21.49;40.91
52927;BME280;40783;49.710;8.842;2023-06-14T11:35:42;98931.09;;;21.82;42.29
52927;BME280;40783;49.710;8.842;2023-06-14T11:38:10;98925.56;;;21.76;42.55
52927;BME280;40783;49.710;8.842;2023-06-14T11:40:37;98927.09;;;21.84;41.31
52927;BME280;40783;49.710;8.842;2023-06-14T11:43:05;98936.56;;;21.82;40.95
52927;BME280;40783;49.710;8.842;2023-06-14T11:45:31;98933.56;;;21.47;42.30
52927;BME280;40783;49.710;8.842;2023-06-14T11:47:56;98939.81;;;21.36;42.57
52927;BME280;40783;49.710;8.842;2023-06-14T11:50:22;98942.53;;;21.48;42.97
52927;BME280;40783;49.710;8.842;2023-06-14T11:52:56;98943.72;;;21.40;42.46
52927;BME280;40783;49.710;8.842;2023-06-14T11:55:24;98933.22;;;21.56;41.46
52927;BME280;40783;49.710;8.842;2023-06-14T11:57:50;98939.59;;;21.49;43.01
52927;BME280;40783;49.710;8.842;2023-06-14T12:00:15;98939.75;;;21.78;43.79
52927;BME280;40783;49.710;8.842;2023-06-14T12:02:53;98930.97;;;22.12;41.76
52927;BME280;40783;49.710;8.842;2023-06-14T12:05:21;98923.84;;;22.11;41.17
52927;BME280;40783;49.710;8.842;2023-06-14T12:07:46;98930.97;;;22.00;41.40
52927;BME280;40783;49.710;8.842;2023-06-14T12:10:11;98928.97;;;21.84;41.94
52927;BME280;40783;49.710;8.842;2023-06-14T12:12:39;98926.75;;;21.69;42.66
52927;BME280;40783;49.710;8.842;2023-06-14T12:15:06;98929.13;;;21.77;40.98
52927;BME280;40783;49.710;8.842;2023-06-14T12:17:33;98924.16;;;21.74;40.57
52927;BME280;40783;49.710;8.842;2023-06-14T12:20:04;98938.22;;;21.83;39.35
52927;BME280;40783;49.710;8.842;2023-06-14T12:22:33;98925.78;;;21.99;40.57
52927;BME280;40783;49.710;8.842;2023-06-14T12:24:59;98924.84;;;21.93;39.38
52927;BME280;40783;49.710;8.842;2023-06-14T12:27:24;98933.81;;;22.05;40.02
52927;BME280;40783;49.710;8.842;2023-06-14T12:30:02;98918.06;;;22.07;40.66
52927;BME280;40783;49.710;8.842;2023-06-14T12:32:28;98924.44;;;22.25;40.63
52927;BME280;40783;49.710;8.842;2023-06-14T12:34:54;98927.44;;;22.41;39.91
52927;BME280;40783;49.710;8.842;2023-06-14T12:37:19;98931.41;;;22.33;40.18
52927;BME280;40783;49.710;8.842;2023-06-14T12:39:44;98928.22;;;22.24;39.36
52927;BME280;40783;49.710;8.842;2023-06-14T12:42:10;98925.50;;;22.12;40.26
52927;BME280;40783;49.710;8.842;2023-06-14T12:44:35;98929.03;;;22.24;40.02
52927;BME280;40783;49.710;8.842;2023-06-14T12:47:05;98930.31;;;22.46;40.06
52927;BME280;40783;49.710;8.842;2023-06-14T12:49:30;98916.13;;;22.32;40.33
52927;BME280;40783;49.710;8.842;2023-06-14T12:51:58;98921.78;;;22.42;41.58
52927;BME280;40783;49.710;8.842;2023-06-14T12:54:23;98920.28;;;22.22;39.26
52927;BME280;40783;49.710;8.842;2023-06-14T12:56:50;98926.75;;;22.33;39.38
52927;BME280;40783;49.710;8.842;2023-06-14T12:59:16;98922.00;;;22.41;40.93
52927;BME280;40783;49.710;8.842;2023-06-14T13:01:44;98926.25;;;22.60;40.31
52927;BME280;40783;49.710;8.842;2023-06-14T13:04:09;98918.38;;;22.76;39.93
52927;BME280;40783;49.710;8.842;2023-06-14T13:06:37;98920.34;;;22.80;39.84
52927;BME280;40783;49.710;8.842;2023-06-14T13:09:05;98924.31;;;22.73;39.25
52927;BME280;40783;49.710;8.842;2023-06-14T13:11:30;98922.84;;;22.41;39.51
52927;BME280;40783;49.710;8.842;2023-06-14T13:13:55;98930.31;;;22.46;40.04